sensor_id;sensor_type;location;lat;lon;timestamp;P1;durP1;ratioP1;P2;durP2;ratioP2
3107;SDS011;1564;49.234;8.554;2023-07-09T00:02:15;4.50;;;3.20;;
3107;SDS011;1564;49.234;8.554;2023-07-09T00:04:41;6.10;;;3.77;;
3107;SDS011;1564;49.234;8.554;2023-07-09T00:07:12;4.80;;;3.77;;
3107;SDS011;1564;49.234;8.554;2023-07-09T00:09:54;4.40;;;3.37;;
3107;SDS011;1564;49.234;8.554;2023-07-09T00:12:20;7.73;;;3.83;;
3107;SDS011;1564;49.234;8.554;2023-07-09T00:14:46;9.50;;;3.60;;
3107;SDS011;1564;49.234;8.554;2023-07-09T00:17:21;7.80;;;4.10;;
3107;SDS011;1564;49.234;8.554;2023-07-09T00:19:51;12.00;;;3.57;;
3107;SDS011;1564;49.234;8.554;2023-07-09T00:22:18;6.63;;;3.77;;
3107;SDS011;1564;49.234;8.554;2023-07-09T00:24:45;4.97;;;3.07;;
3107;SDS011;1564;49.234;8.554;2023-07-09T00:27:13;6.30;;;3.70;;
3107;SDS011;1564;49.234;8.554;2023-07-09T00:29:41;7.50;;;3.90;;
3107;SDS011;1564;49.234;8.554;2023-07-09T00:32:14;7.27;;;4.10;;
3107;SDS011;1564;49.234;8.554;2023-07-09T00:34:44;7.53;;;3.93;;
3107;SDS011;1564;49.234;8.554;2023-07-09T00:37:13;5.23;;;3.20;;
3107;SDS011;1564;49.234;8.554;2023-07-09T00:39:42;4.40;;;3.10;;
3107;SDS011;1564;49.234;8.554;2023-07-09T00:42:15;6.30;;;3.13;;
3107;SDS011;1564;49.234;8.554;2023-07-09T00:44:44;7.57;;;3.80;;
3107;SDS011;1564;49.234;8.554;2023-07-09T00:51:11;7.00;;;3.60;;
3107;SDS011;1564;49.234;8.554;2023-07-09T00:53:40;4.90;;;3.53;;
3107;SDS011;1564;49.234;8.554;2023-07-09T00:56:13;8.90;;;4.20;;
3107;SDS011;1564;49.234;8.554;2023-07-09T00:58:56;6.47;;;4.03;;
3107;SDS011;1564;49.234;8.554;2023-07-09T01:01:29;6.30;;;3.50;;
3107;SDS011;1564;49.234;8.554;2023-07-09T01:03:56;5.33;;;3.50;;
3107;SDS011;1564;49.234;8.554;2023-07-09T01:06:32;5.70;;;3.20;;
3107;SDS011;1564;49.234;8.554;2023-07-09T01:09:09;5.13;;;3.30;;
3107;SDS011;1564;49.234;8.554;2023-07-09T01:11:35;7.30;;;4.07;;
3107;SDS011;1564;49.234;8.554;2023-07-09T01:14:04;7.27;;;3.90;;
3107;SDS011;1564;49.234;8.554;2023-07-09T01:16:36;5.00;;;3.80;;
3107;SDS011;1564;49.234;8.554;2023-07-09T01:19:07;7.23;;;4.37;;
3107;SDS011;1564;49.234;8.554;2023-07-09T01:21:33;12.03;;;4.20;;
3107;SDS011;1564;49.234;8.554;2023-07-09T01:24:09;7.20;;;3.47;;
3107;SDS011;1564;49.234;8.554;2023-07-09T01:26:41;5.50;;;3.80;;
3107;SDS011;1564;49.234;8.554;2023-07-09T01:29:08;8.23;;;3.50;;
3107;SDS011;1564;49.234;8.554;2023-07-09T01:31:34;6.97;;;3.90;;
3107;SDS011;1564;49.234;8.554;2023-07-09T01:34:01;8.53;;;3.20;;
3107;SDS011;1564;49.234;8.554;2023-07-09T01:36:27;6.20;;;3.67;;
3107;SDS011;1564;49.234;8.554;2023-07-09T01:38:53;5.33;;;4.43;;
3107;SDS011;1564;49.234;8.554;2023-07-09T01:41:19;11.30;;;4.20;;
3107;SDS011;1564;49.234;8.554;2023-07-09T01:43:45;4.20;;;3.20;;
3107;SDS011;1564;49.234;8.554;2023-07-09T01:46:11;8.37;;;4.27;;
3107;SDS011;1564;49.234;8.554;2023-07-09T01:48:38;5.80;;;3.33;;
3107;SDS011;1564;49.234;8.554;2023-07-09T01:51:07;6.63;;;3.60;;
3107;SDS011;1564;49.234;8.554;2023-07-09T01:53:39;6.77;;;3.97;;
3107;SDS011;1564;49.234;8.554;2023-07-09T01:56:06;4.40;;;3.20;;
3107;SDS011;1564;49.234;8.554;2023-07-09T01:58:35;5.37;;;3.60;;
3107;SDS011;1564;49.234;8.554;2023-07-09T02:01:06;10.60;;;4.63;;
3107;SDS011;1564;49.234;8.554;2023-07-09T02:03:33;5.80;;;3.90;;
3107;SDS011;1564;49.234;8.554;2023-07-09T02:05:59;7.00;;;3.90;;
3107;SDS011;1564;49.234;8.554;2023-07-09T02:08:25;6.27;;;3.70;;
3107;SDS011;1564;49.234;8.554;2023-07-09T02:10:51;5.00;;;3.60;;
3107;SDS011;1564;49.234;8.554;2023-07-09T02:13:17;8.90;;;4.30;;
3107;SDS011;1564;49.234;8.554;2023-07-09T02:15:43;6.67;;;3.63;;
3107;SDS011;1564;49.234;8.554;2023-07-09T02:18:09;5.20;;;3.83;;
3107;SDS011;1564;49.234;8.554;2023-07-09T02:20:36;7.07;;;4.03;;
3107;SDS011;1564;49.234;8.554;2023-07-09T02:23:02;5.83;;;4.23;;
3107;SDS011;1564;49.234;8.554;2023-07-09T02:25:28;9.70;;;4.17;;
3107;SDS011;1564;49.234;8.554;2023-07-09T02:27:53;6.50;;;4.13;;
3107;SDS011;1564;49.234;8.554;2023-07-09T02:30:19;6.80;;;3.80;;
3107;SDS011;1564;49.234;8.554;2023-07-09T02:32:45;5.30;;;3.27;;
3107;SDS011;1564;49.234;8.554;2023-07-09T02:35:11;7.63;;;3.93;;
3107;SDS011;1564;49.234;8.554;2023-07-09T02:37:37;5.60;;;4.00;;
3107;SDS011;1564;49.234;8.554;2023-07-09T02:40:03;9.97;;;4.43;;
3107;SDS011;1564;49.234;8.554;2023-07-09T02:42:29;5.60;;;3.57;;
3107;SDS011;1564;49.234;8.554;2023-07-09T02:44:55;9.47;;;4.60;;
3107;SDS011;1564;49.234;8.554;2023-07-09T02:47:21;5.10;;;3.80;;
3107;SDS011;1564;49.234;8.554;2023-07-09T02:49:47;6.50;;;3.63;;
3107;SDS011;1564;49.234;8.554;2023-07-09T02:52:13;6.13;;;4.30;;
3107;SDS011;1564;49.234;8.554;2023-07-09T02:54:39;4.87;;;3.13;;
3107;SDS011;1564;49.234;8.554;2023-07-09T02:57:05;5.53;;;3.80;;
3107;SDS011;1564;49.234;8.554;2023-07-09T02:59:31;7.93;;;4.20;;
3107;SDS011;1564;49.234;8.554;2023-07-09T03:01:58;7.07;;;4.10;;
3107;SDS011;1564;49.234;8.554;2023-07-09T03:04:25;7.63;;;3.80;;
3107;SDS011;1564;49.234;8.554;2023-07-09T03:06:51;7.20;;;3.90;;
3107;SDS011;1564;49.234;8.554;2023-07-09T03:09:17;7.10;;;3.93;;
3107;SDS011;1564;49.234;8.554;2023-07-09T03:11:44;8.07;;;3.90;;
3107;SDS011;1564;49.234;8.554;2023-07-09T03:14:09;5.73;;;3.70;;
3107;SDS011;1564;49.234;8.554;2023-07-09T03:16:36;8.47;;;3.97;;
3107;SDS011;1564;49.234;8.554;2023-07-09T03:19:03;8.53;;;3.80;;
3107;SDS011;1564;49.234;8.554;2023-07-09T03:21:29;7.93;;;4.10;;
3107;SDS011;1564;49.234;8.554;2023-07-09T03:23:56;6.03;;;4.23;;
3107;SDS011;1564;49.234;8.554;2023-07-09T03:26:22;4.90;;;3.70;;
3107;SDS011;1564;49.234;8.554;2023-07-09T03:28:50;6.67;;;4.07;;
3107;SDS011;1564;49.234;8.554;2023-07-09T03:31:16;7.93;;;4.83;;
3107;SDS011;1564;49.234;8.554;2023-07-09T03:33:42;10.30;;;4.80;;
3107;SDS011;1564;49.234;8.554;2023-07-09T03:36:08;6.03;;;3.93;;
3107;SDS011;1564;49.234;8.554;2023-07-09T03:38:34;5.60;;;3.70;;
3107;SDS011;1564;49.234;8.554;2023-07-09T03:41:00;8.47;;;3.97;;
3107;SDS011;1564;49.234;8.554;2023-07-09T03:43:25;6.90;;;4.50;;
3107;SDS011;1564;49.234;8.554;2023-07-09T03:45:51;9.40;;;3.60;;
3107;SDS011;1564;49.234;8.554;2023-07-09T03:48:18;6.40;;;4.73;;
3107;SDS011;1564;49.234;8.554;2023-07-09T03:50:45;8.47;;;4.17;;
3107;SDS011;1564;49.234;8.554;2023-07-09T03:53:12;8.53;;;4.53;;
3107;SDS011;1564;49.234;8.554;2023-07-09T03:55:38;4.43;;;3.50;;
3107;SDS011;1564;49.234;8.554;2023-07-09T03:58:04;10.20;;;4.47;;
3107;SDS011;1564;49.234;8.554;2023-07-09T04:00:30;10.23;;;4.23;;
3107;SDS011;1564;49.234;8.554;2023-07-09T04:02:56;5.77;;;3.30;;
3107;SDS011;1564;49.234;8.554;2023-07-09T04:05:23;6.97;;;4.13;;
3107;SDS011;1564;49.234;8.554;2023-07-09T04:07:49;10.20;;;4.60;;
3107;SDS011;1564;49.234;8.554;2023-07-09T04:10:15;5.70;;;3.67;;
3107;SDS011;1564;49.234;8.554;2023-07-09T04:12:41;5.10;;;3.70;;
3107;SDS011;1564;49.234;8.554;2023-07-09T04:15:07;7.70;;;4.13;;
3107;SDS011;1564;49.234;8.554;2023-07-09T04:17:34;6.70;;;3.80;;
3107;SDS011;1564;49.234;8.554;2023-07-09T04:20:00;6.70;;;4.10;;
3107;SDS011;1564;49.234;8.554;2023-07-09T04:22:31;6.90;;;3.80;;
3107;SDS011;1564;49.234;8.554;2023-07-09T04:24:57;6.47;;;3.80;;
3107;SDS011;1564;49.234;8.554;2023-07-09T04:27:23;4.73;;;3.80;;
3107;SDS011;1564;49.234;8.554;2023-07-09T04:29:52;12.40;;;4.70;;
3107;SDS011;1564;49.234;8.554;2023-07-09T04:32:18;5.27;;;3.90;;
3107;SDS011;1564;49.234;8.554;2023-07-09T04:34:45;9.90;;;3.60;;
3107;SDS011;1564;49.234;8.554;2023-07-09T04:37:11;11.73;;;3.53;;
3107;SDS011;1564;49.234;8.554;2023-07-09T04:39:38;8.17;;;3.63;;
3107;SDS011;1564;49.234;8.554;2023-07-09T04:42:09;5.50;;;3.17;;
3107;SDS011;1564;49.234;8.554;2023-07-09T04:44:37;10.43;;;4.30;;
3107;SDS011;1564;49.234;8.554;2023-07-09T04:47:03;11.03;;;4.13;;
3107;SDS011;1564;49.234;8.554;2023-07-09T04:49:29;7.77;;;3.97;;
3107;SDS011;1564;49.234;8.554;2023-07-09T04:51:55;5.80;;;4.10;;
3107;SDS011;1564;49.234;8.554;2023-07-09T04:54:22;5.90;;;3.53;;
3107;SDS011;1564;49.234;8.554;2023-07-09T04:56:48;4.90;;;3.40;;
3107;SDS011;1564;49.234;8.554;2023-07-09T04:59:14;5.00;;;3.37;;
3107;SDS011;1564;49.234;8.554;2023-07-09T05:01:40;6.57;;;3.50;;
3107;SDS011;1564;49.234;8.554;2023-07-09T05:04:06;6.07;;;4.03;;
3107;SDS011;1564;49.234;8.554;2023-07-09T05:06:32;12.97;;;3.70;;
3107;SDS011;1564;49.234;8.554;2023-07-09T05:08:59;5.80;;;2.80;;
3107;SDS011;1564;49.234;8.554;2023-07-09T05:11:25;4.90;;;3.40;;
3107;SDS011;1564;49.234;8.554;2023-07-09T05:13:51;5.83;;;3.10;;
3107;SDS011;1564;49.234;8.554;2023-07-09T05:16:16;4.80;;;2.67;;
3107;SDS011;1564;49.234;8.554;2023-07-09T05:18:42;5.03;;;3.27;;
3107;SDS011;1564;49.234;8.554;2023-07-09T05:21:10;4.10;;;3.20;;
3107;SDS011;1564;49.234;8.554;2023-07-09T05:23:36;5.70;;;3.20;;
3107;SDS011;1564;49.234;8.554;2023-07-09T05:26:02;7.70;;;2.90;;
3107;SDS011;1564;49.234;8.554;2023-07-09T05:28:29;4.50;;;2.93;;
3107;SDS011;1564;49.234;8.554;2023-07-09T05:30:57;3.97;;;3.20;;
3107;SDS011;1564;49.234;8.554;2023-07-09T05:33:24;6.30;;;2.90;;
3107;SDS011;1564;49.234;8.554;2023-07-09T05:35:50;6.20;;;4.50;;
3107;SDS011;1564;49.234;8.554;2023-07-09T05:38:15;3.90;;;2.90;;
3107;SDS011;1564;49.234;8.554;2023-07-09T05:40:42;5.70;;;3.03;;
3107;SDS011;1564;49.234;8.554;2023-07-09T05:43:09;10.77;;;4.17;;
3107;SDS011;1564;49.234;8.554;2023-07-09T05:45:35;6.13;;;3.23;;
3107;SDS011;1564;49.234;8.554;2023-07-09T05:48:04;6.90;;;3.40;;
3107;SDS011;1564;49.234;8.554;2023-07-09T05:50:32;7.33;;;3.10;;
3107;SDS011;1564;49.234;8.554;2023-07-09T05:52:59;5.97;;;3.00;;
3107;SDS011;1564;49.234;8.554;2023-07-09T05:55:25;8.13;;;3.40;;
3107;SDS011;1564;49.234;8.554;2023-07-09T05:57:51;4.90;;;2.90;;
3107;SDS011;1564;49.234;8.554;2023-07-09T06:00:18;6.50;;;2.53;;
3107;SDS011;1564;49.234;8.554;2023-07-09T06:02:44;6.27;;;2.63;;
3107;SDS011;1564;49.234;8.554;2023-07-09T06:05:10;4.03;;;2.40;;
3107;SDS011;1564;49.234;8.554;2023-07-09T06:07:36;3.50;;;2.67;;
3107;SDS011;1564;49.234;8.554;2023-07-09T06:10:03;5.30;;;2.70;;
3107;SDS011;1564;49.234;8.554;2023-07-09T06:12:33;4.20;;;2.33;;
3107;SDS011;1564;49.234;8.554;2023-07-09T06:14:59;7.23;;;2.83;;
3107;SDS011;1564;49.234;8.554;2023-07-09T06:17:25;3.77;;;2.77;;
3107;SDS011;1564;49.234;8.554;2023-07-09T06:19:50;3.67;;;2.20;;
3107;SDS011;1564;49.234;8.554;2023-07-09T06:22:16;4.67;;;2.50;;
3107;SDS011;1564;49.234;8.554;2023-07-09T06:24:42;4.20;;;2.77;;
3107;SDS011;1564;49.234;8.554;2023-07-09T06:27:09;5.20;;;2.50;;
3107;SDS011;1564;49.234;8.554;2023-07-09T06:29:34;3.67;;;2.70;;
3107;SDS011;1564;49.234;8.554;2023-07-09T06:32:00;7.03;;;2.90;;
3107;SDS011;1564;49.234;8.554;2023-07-09T06:34:26;9.40;;;3.20;;
3107;SDS011;1564;49.234;8.554;2023-07-09T06:36:52;5.60;;;2.73;;
3107;SDS011;1564;49.234;8.554;2023-07-09T06:39:18;3.20;;;2.03;;
3107;SDS011;1564;49.234;8.554;2023-07-09T06:41:44;6.70;;;2.47;;
3107;SDS011;1564;49.234;8.554;2023-07-09T06:44:10;5.53;;;2.80;;
3107;SDS011;1564;49.234;8.554;2023-07-09T06:46:36;4.27;;;2.93;;
3107;SDS011;1564;49.234;8.554;2023-07-09T06:49:02;7.03;;;2.67;;
3107;SDS011;1564;49.234;8.554;2023-07-09T06:51:30;3.00;;;2.20;;
3107;SDS011;1564;49.234;8.554;2023-07-09T06:53:56;4.37;;;2.40;;
3107;SDS011;1564;49.234;8.554;2023-07-09T06:56:23;4.13;;;2.37;;
3107;SDS011;1564;49.234;8.554;2023-07-09T06:58:49;4.90;;;2.60;;
3107;SDS011;1564;49.234;8.554;2023-07-09T07:01:14;5.10;;;2.50;;
3107;SDS011;1564;49.234;8.554;2023-07-09T07:03:40;3.83;;;2.33;;
3107;SDS011;1564;49.234;8.554;2023-07-09T07:06:06;3.50;;;2.83;;
3107;SDS011;1564;49.234;8.554;2023-07-09T07:08:32;3.47;;;2.10;;
3107;SDS011;1564;49.234;8.554;2023-07-09T07:10:59;5.53;;;2.50;;
3107;SDS011;1564;49.234;8.554;2023-07-09T07:13:37;6.50;;;3.33;;
3107;SDS011;1564;49.234;8.554;2023-07-09T07:16:05;3.80;;;2.70;;
3107;SDS011;1564;49.234;8.554;2023-07-09T07:18:33;5.53;;;2.63;;
3107;SDS011;1564;49.234;8.554;2023-07-09T07:20:59;4.67;;;2.57;;
3107;SDS011;1564;49.234;8.554;2023-07-09T07:23:25;6.30;;;2.20;;
3107;SDS011;1564;49.234;8.554;2023-07-09T07:25:51;6.33;;;2.90;;
3107;SDS011;1564;49.234;8.554;2023-07-09T07:28:17;6.33;;;2.87;;
3107;SDS011;1564;49.234;8.554;2023-07-09T07:30:43;5.73;;;2.70;;
3107;SDS011;1564;49.234;8.554;2023-07-09T07:33:10;5.80;;;2.30;;
3107;SDS011;1564;49.234;8.554;2023-07-09T07:35:36;4.13;;;2.47;;
3107;SDS011;1564;49.234;8.554;2023-07-09T07:38:02;5.47;;;2.47;;
3107;SDS011;1564;49.234;8.554;2023-07-09T07:40:28;4.87;;;2.57;;
3107;SDS011;1564;49.234;8.554;2023-07-09T07:42:54;3.40;;;2.10;;
3107;SDS011;1564;49.234;8.554;2023-07-09T07:45:21;7.43;;;3.07;;
3107;SDS011;1564;49.234;8.554;2023-07-09T07:47:47;6.50;;;2.40;;
3107;SDS011;1564;49.234;8.554;2023-07-09T07:50:13;5.77;;;2.23;;
3107;SDS011;1564;49.234;8.554;2023-07-09T07:52:39;2.93;;;2.17;;
3107;SDS011;1564;49.234;8.554;2023-07-09T07:55:05;4.23;;;2.73;;
3107;SDS011;1564;49.234;8.554;2023-07-09T07:57:32;2.60;;;2.10;;
3107;SDS011;1564;49.234;8.554;2023-07-09T07:59:58;3.87;;;2.30;;
3107;SDS011;1564;49.234;8.554;2023-07-09T08:02:24;4.57;;;2.27;;
3107;SDS011;1564;49.234;8.554;2023-07-09T08:04:50;2.83;;;2.50;;
3107;SDS011;1564;49.234;8.554;2023-07-09T08:07:17;2.63;;;1.83;;
3107;SDS011;1564;49.234;8.554;2023-07-09T08:09:44;3.93;;;2.17;;
3107;SDS011;1564;49.234;8.554;2023-07-09T08:12:11;9.37;;;3.10;;
3107;SDS011;1564;49.234;8.554;2023-07-09T08:14:39;4.20;;;2.70;;
3107;SDS011;1564;49.234;8.554;2023-07-09T08:17:06;4.57;;;3.03;;
3107;SDS011;1564;49.234;8.554;2023-07-09T08:19:43;7.20;;;2.30;;
3107;SDS011;1564;49.234;8.554;2023-07-09T08:22:10;5.73;;;2.63;;
3107;SDS011;1564;49.234;8.554;2023-07-09T08:24:36;3.23;;;1.77;;
3107;SDS011;1564;49.234;8.554;2023-07-09T08:27:01;3.13;;;2.20;;
3107;SDS011;1564;49.234;8.554;2023-07-09T08:29:28;3.70;;;2.20;;
3107;SDS011;1564;49.234;8.554;2023-07-09T08:31:54;4.37;;;2.40;;
3107;SDS011;1564;49.234;8.554;2023-07-09T08:34:20;3.33;;;2.27;;
3107;SDS011;1564;49.234;8.554;2023-07-09T08:36:45;3.00;;;1.93;;
3107;SDS011;1564;49.234;8.554;2023-07-09T08:39:11;3.60;;;2.43;;
3107;SDS011;1564;49.234;8.554;2023-07-09T08:44:44;2.63;;;2.43;;
3107;SDS011;1564;49.234;8.554;2023-07-09T08:47:53;3.37;;;2.10;;
3107;SDS011;1564;49.234;8.554;2023-07-09T08:50:28;4.07;;;2.20;;
3107;SDS011;1564;49.234;8.554;2023-07-09T08:53:19;3.50;;;2.17;;
3107;SDS011;1564;49.234;8.554;2023-07-09T08:55:52;2.20;;;1.90;;
3107;SDS011;1564;49.234;8.554;2023-07-09T08:58:21;3.87;;;1.90;;
3107;SDS011;1564;49.234;8.554;2023-07-09T09:00:53;2.80;;;1.60;;
3107;SDS011;1564;49.234;8.554;2023-07-09T09:03:39;5.77;;;2.00;;
3107;SDS011;1564;49.234;8.554;2023-07-09T09:06:17;2.80;;;2.33;;
3107;SDS011;1564;49.234;8.554;2023-07-09T09:08:58;2.93;;;2.40;;
3107;SDS011;1564;49.234;8.554;2023-07-09T09:11:49;2.63;;;1.70;;
3107;SDS011;1564;49.234;8.554;2023-07-09T09:14:33;7.47;;;2.20;;
3107;SDS011;1564;49.234;8.554;2023-07-09T09:17:08;2.77;;;2.10;;
3107;SDS011;1564;49.234;8.554;2023-07-09T09:19:51;7.40;;;2.90;;
3107;SDS011;1564;49.234;8.554;2023-07-09T09:22:25;3.73;;;2.10;;
3107;SDS011;1564;49.234;8.554;2023-07-09T09:24:59;3.47;;;2.10;;
3107;SDS011;1564;49.234;8.554;2023-07-09T09:27:43;3.70;;;2.60;;
3107;SDS011;1564;49.234;8.554;2023-07-09T09:30:11;2.43;;;1.90;;
3107;SDS011;1564;49.234;8.554;2023-07-09T09:32:43;3.83;;;2.43;;
3107;SDS011;1564;49.234;8.554;2023-07-09T09:35:18;2.13;;;1.90;;
3107;SDS011;1564;49.234;8.554;2023-07-09T09:37:55;3.70;;;2.00;;
3107;SDS011;1564;49.234;8.554;2023-07-09T09:40:22;2.70;;;2.03;;
3107;SDS011;1564;49.234;8.554;2023-07-09T09:42:51;3.47;;;2.07;;
3107;SDS011;1564;49.234;8.554;2023-07-09T09:45:20;3.00;;;2.10;;
3107;SDS011;1564;49.234;8.554;2023-07-09T09:47:51;2.23;;;1.70;;
3107;SDS011;1564;49.234;8.554;2023-07-09T09:50:20;4.93;;;2.00;;
3107;SDS011;1564;49.234;8.554;2023-07-09T09:52:48;2.30;;;1.70;;
3107;SDS011;1564;49.234;8.554;2023-07-09T09:55:18;1.97;;;1.70;;
3107;SDS011;1564;49.234;8.554;2023-07-09T09:57:48;2.57;;;2.20;;
3107;SDS011;1564;49.234;8.554;2023-07-09T10:00:15;3.27;;;1.83;;
3107;SDS011;1564;49.234;8.554;2023-07-09T10:02:42;1.80;;;1.50;;
3107;SDS011;1564;49.234;8.554;2023-07-09T10:05:14;2.07;;;1.80;;
3107;SDS011;1564;49.234;8.554;2023-07-09T10:08:05;2.80;;;1.90;;
3107;SDS011;1564;49.234;8.554;2023-07-09T10:10:47;4.80;;;2.30;;
3107;SDS011;1564;49.234;8.554;2023-07-09T10:13:26;1.90;;;1.70;;
3107;SDS011;1564;49.234;8.554;2023-07-09T10:16:05;1.43;;;1.33;;
3107;SDS011;1564;49.234;8.554;2023-07-09T10:18:53;4.07;;;1.80;;
3107;SDS011;1564;49.234;8.554;2023-07-09T10:23:07;8.50;;;6.13;;
3107;SDS011;1564;49.234;8.554;2023-07-09T10:36:36;2.73;;;2.07;;
3107;SDS011;1564;49.234;8.554;2023-07-09T10:59:41;2.07;;;1.87;;
3107;SDS011;1564;49.234;8.554;2023-07-09T11:02:30;2.50;;;1.23;;
3107;SDS011;1564;49.234;8.554;2023-07-09T11:04:58;2.20;;;1.80;;
3107;SDS011;1564;49.234;8.554;2023-07-09T11:10:25;1.70;;;1.60;;
3107;SDS011;1564;49.234;8.554;2023-07-09T11:16:29;4.53;;;1.50;;
3107;SDS011;1564;49.234;8.554;2023-07-09T11:19:06;1.60;;;1.40;;
3107;SDS011;1564;49.234;8.554;2023-07-09T11:25:44;3.33;;;1.73;;
3107;SDS011;1564;49.234;8.554;2023-07-09T11:28:12;2.80;;;2.30;;
3107;SDS011;1564;49.234;8.554;2023-07-09T11:34:33;1.60;;;1.50;;
3107;SDS011;1564;49.234;8.554;2023-07-09T11:36:59;1.97;;;1.70;;
3107;SDS011;1564;49.234;8.554;2023-07-09T11:43:51;2.70;;;2.12;;
3107;SDS011;1564;49.234;8.554;2023-07-09T11:46:17;3.20;;;2.00;;
3107;SDS011;1564;49.234;8.554;2023-07-09T11:48:47;4.87;;;1.47;;
3107;SDS011;1564;49.234;8.554;2023-07-09T11:51:21;6.20;;;1.40;;
3107;SDS011;1564;49.234;8.554;2023-07-09T11:53:55;3.72;;;2.05;;
3107;SDS011;1564;49.234;8.554;2023-07-09T11:56:21;3.20;;;1.83;;
3107;SDS011;1564;49.234;8.554;2023-07-09T11:58:52;2.85;;;1.73;;
3107;SDS011;1564;49.234;8.554;2023-07-09T12:01:22;2.03;;;1.70;;
3107;SDS011;1564;49.234;8.554;2023-07-09T12:04:11;4.18;;;1.50;;
3107;SDS011;1564;49.234;8.554;2023-07-09T12:06:39;2.33;;;2.10;;
3107;SDS011;1564;49.234;8.554;2023-07-09T12:09:05;2.17;;;1.40;;
3107;SDS011;1564;49.234;8.554;2023-07-09T12:11:34;2.00;;;1.83;;
3107;SDS011;1564;49.234;8.554;2023-07-09T12:14:04;1.60;;;1.50;;
3107;SDS011;1564;49.234;8.554;2023-07-09T12:16:36;1.62;;;1.52;;
3107;SDS011;1564;49.234;8.554;2023-07-09T12:19:04;1.95;;;1.40;;
3107;SDS011;1564;49.234;8.554;2023-07-09T12:21:31;2.33;;;1.47;;
3107;SDS011;1564;49.234;8.554;2023-07-09T12:23:59;2.92;;;2.15;;
3107;SDS011;1564;49.234;8.554;2023-07-09T12:26:30;3.60;;;1.60;;
3107;SDS011;1564;49.234;8.554;2023-07-09T12:28:57;1.42;;;1.33;;
3107;SDS011;1564;49.234;8.554;2023-07-09T12:31:27;7.47;;;1.65;;
3107;SDS011;1564;49.234;8.554;2023-07-09T12:33:55;3.10;;;1.70;;
3107;SDS011;1564;49.234;8.554;2023-07-09T12:36:26;1.70;;;1.50;;
3107;SDS011;1564;49.234;8.554;2023-07-09T12:39:11;1.67;;;1.58;;
3107;SDS011;1564;49.234;8.554;2023-07-09T12:41:40;2.03;;;1.55;;
3107;SDS011;1564;49.234;8.554;2023-07-09T12:44:15;2.40;;;1.98;;
3107;SDS011;1564;49.234;8.554;2023-07-09T12:46:43;2.08;;;1.77;;
3107;SDS011;1564;49.234;8.554;2023-07-09T12:49:20;2.22;;;1.62;;
3107;SDS011;1564;49.234;8.554;2023-07-09T12:51:55;1.42;;;1.33;;
3107;SDS011;1564;49.234;8.554;2023-07-09T12:54:21;3.55;;;1.92;;
3107;SDS011;1564;49.234;8.554;2023-07-09T12:56:50;7.85;;;1.55;;
3107;SDS011;1564;49.234;8.554;2023-07-09T12:59:23;1.45;;;1.35;;
3107;SDS011;1564;49.234;8.554;2023-07-09T13:02:14;2.78;;;1.45;;
3107;SDS011;1564;49.234;8.554;2023-07-09T13:06:03;1.55;;;1.45;;
3107;SDS011;1564;49.234;8.554;2023-07-09T13:08:31;1.75;;;1.65;;
3107;SDS011;1564;49.234;8.554;2023-07-09T13:11:24;2.25;;;1.37;;
3107;SDS011;1564;49.234;8.554;2023-07-09T13:21:59;2.20;;;1.67;;
3107;SDS011;1564;49.234;8.554;2023-07-09T13:24:44;1.42;;;1.33;;
3107;SDS011;1564;49.234;8.554;2023-07-09T13:30:10;1.52;;;1.25;;
3107;SDS011;1564;49.234;8.554;2023-07-09T13:32:37;2.10;;;1.70;;
3107;SDS011;1564;49.234;8.554;2023-07-09T13:37:53;3.30;;;1.52;;
3107;SDS011;1564;49.234;8.554;2023-07-09T13:40:19;1.17;;;1.17;;
3107;SDS011;1564;49.234;8.554;2023-07-09T13:42:48;1.40;;;1.30;;
3107;SDS011;1564;49.234;8.554;2023-07-09T13:45:22;1.90;;;1.80;;
3107;SDS011;1564;49.234;8.554;2023-07-09T13:47:50;1.23;;;1.12;;
3107;SDS011;1564;49.234;8.554;2023-07-09T13:50:20;3.40;;;1.40;;
3107;SDS011;1564;49.234;8.554;2023-07-09T13:52:46;2.35;;;1.58;;
3107;SDS011;1564;49.234;8.554;2023-07-09T13:55:16;3.53;;;1.60;;
3107;SDS011;1564;49.234;8.554;2023-07-09T13:57:43;1.20;;;1.05;;
3107;SDS011;1564;49.234;8.554;2023-07-09T14:00:10;2.20;;;1.67;;
3107;SDS011;1564;49.234;8.554;2023-07-09T14:02:37;1.98;;;1.50;;
3107;SDS011;1564;49.234;8.554;2023-07-09T14:05:04;2.17;;;1.48;;
3107;SDS011;1564;49.234;8.554;2023-07-09T14:07:35;3.33;;;2.17;;
3107;SDS011;1564;49.234;8.554;2023-07-09T14:10:03;1.58;;;1.48;;
3107;SDS011;1564;49.234;8.554;2023-07-09T14:12:31;1.85;;;1.65;;
3107;SDS011;1564;49.234;8.554;2023-07-09T14:14:58;2.20;;;2.00;;
3107;SDS011;1564;49.234;8.554;2023-07-09T14:17:26;2.12;;;1.75;;
3107;SDS011;1564;49.234;8.554;2023-07-09T14:19:52;2.20;;;1.45;;
3107;SDS011;1564;49.234;8.554;2023-07-09T14:22:25;1.58;;;1.48;;
3107;SDS011;1564;49.234;8.554;2023-07-09T14:24:58;1.30;;;1.20;;
3107;SDS011;1564;49.234;8.554;2023-07-09T14:27:24;1.98;;;1.73;;
3107;SDS011;1564;49.234;8.554;2023-07-09T14:29:51;1.95;;;1.85;;
3107;SDS011;1564;49.234;8.554;2023-07-09T14:32:30;1.83;;;1.73;;
3107;SDS011;1564;49.234;8.554;2023-07-09T14:35:20;1.87;;;1.58;;
3107;SDS011;1564;49.234;8.554;2023-07-09T14:37:49;2.17;;;1.90;;
3107;SDS011;1564;49.234;8.554;2023-07-09T14:40:17;4.47;;;1.83;;
3107;SDS011;1564;49.234;8.554;2023-07-09T14:42:45;1.30;;;1.23;;
3107;SDS011;1564;49.234;8.554;2023-07-09T14:45:16;1.48;;;1.37;;
3107;SDS011;1564;49.234;8.554;2023-07-09T14:47:53;2.05;;;1.65;;
3107;SDS011;1564;49.234;8.554;2023-07-09T14:50:19;2.85;;;1.87;;
3107;SDS011;1564;49.234;8.554;2023-07-09T14:52:47;3.10;;;1.80;;
3107;SDS011;1564;49.234;8.554;2023-07-09T14:55:20;4.32;;;1.80;;
3107;SDS011;1564;49.234;8.554;2023-07-09T14:57:51;2.10;;;1.12;;
3107;SDS011;1564;49.234;8.554;2023-07-09T15:00:18;1.45;;;1.35;;
3107;SDS011;1564;49.234;8.554;2023-07-09T15:02:49;1.65;;;1.55;;
3107;SDS011;1564;49.234;8.554;2023-07-09T15:05:18;2.47;;;2.28;;
3107;SDS011;1564;49.234;8.554;2023-07-09T15:07:47;1.62;;;1.33;;
3107;SDS011;1564;49.234;8.554;2023-07-09T15:10:13;2.58;;;1.80;;
3107;SDS011;1564;49.234;8.554;2023-07-09T15:12:41;2.22;;;1.90;;
3107;SDS011;1564;49.234;8.554;2023-07-09T15:15:27;2.00;;;1.20;;
3107;SDS011;1564;49.234;8.554;2023-07-09T15:18:08;1.92;;;1.70;;
3107;SDS011;1564;49.234;8.554;2023-07-09T15:20:37;1.73;;;1.62;;
3107;SDS011;1564;49.234;8.554;2023-07-09T15:23:03;1.27;;;1.17;;
3107;SDS011;1564;49.234;8.554;2023-07-09T15:25:29;1.75;;;1.65;;
3107;SDS011;1564;49.234;8.554;2023-07-09T15:27:58;2.30;;;1.60;;
3107;SDS011;1564;49.234;8.554;2023-07-09T15:30:26;1.20;;;1.10;;
3107;SDS011;1564;49.234;8.554;2023-07-09T15:32:54;2.03;;;1.70;;
3107;SDS011;1564;49.234;8.554;2023-07-09T15:35:22;2.55;;;1.83;;
3107;SDS011;1564;49.234;8.554;2023-07-09T15:37:50;1.48;;;1.37;;
3107;SDS011;1564;49.234;8.554;2023-07-09T15:40:20;2.20;;;2.00;;
3107;SDS011;1564;49.234;8.554;2023-07-09T15:42:48;2.17;;;1.67;;
3107;SDS011;1564;49.234;8.554;2023-07-09T15:45:17;2.17;;;1.37;;
3107;SDS011;1564;49.234;8.554;2023-07-09T15:47:47;1.90;;;1.50;;
3107;SDS011;1564;49.234;8.554;2023-07-09T15:50:25;2.25;;;1.90;;
3107;SDS011;1564;49.234;8.554;2023-07-09T15:52:52;5.80;;;2.45;;
3107;SDS011;1564;49.234;8.554;2023-07-09T15:55:19;2.05;;;1.85;;
3107;SDS011;1564;49.234;8.554;2023-07-09T15:57:47;2.20;;;2.00;;
3107;SDS011;1564;49.234;8.554;2023-07-09T16:00:22;2.58;;;2.10;;
3107;SDS011;1564;49.234;8.554;2023-07-09T16:02:51;1.77;;;1.67;;
3107;SDS011;1564;49.234;8.554;2023-07-09T16:08:04;2.55;;;1.90;;
3107;SDS011;1564;49.234;8.554;2023-07-09T16:10:30;2.62;;;1.70;;
3107;SDS011;1564;49.234;8.554;2023-07-09T16:12:56;3.25;;;1.80;;
3107;SDS011;1564;49.234;8.554;2023-07-09T16:15:23;2.95;;;1.45;;
3107;SDS011;1564;49.234;8.554;2023-07-09T16:17:50;4.37;;;2.22;;
3107;SDS011;1564;49.234;8.554;2023-07-09T16:20:17;2.17;;;1.98;;
3107;SDS011;1564;49.234;8.554;2023-07-09T16:22:51;2.97;;;1.80;;
3107;SDS011;1564;49.234;8.554;2023-07-09T16:25:31;1.65;;;1.55;;
3107;SDS011;1564;49.234;8.554;2023-07-09T16:27:59;3.28;;;2.00;;
3107;SDS011;1564;49.234;8.554;2023-07-09T16:30:26;1.20;;;1.10;;
3107;SDS011;1564;49.234;8.554;2023-07-09T16:32:56;2.30;;;1.30;;
3107;SDS011;1564;49.234;8.554;2023-07-09T16:35:23;6.20;;;1.87;;
3107;SDS011;1564;49.234;8.554;2023-07-09T16:37:52;4.43;;;2.23;;
3107;SDS011;1564;49.234;8.554;2023-07-09T16:40:25;3.50;;;1.90;;
3107;SDS011;1564;49.234;8.554;2023-07-09T16:42:54;5.93;;;2.40;;
3107;SDS011;1564;49.234;8.554;2023-07-09T16:45:22;4.18;;;2.03;;